Time;durP1;ratioP1;P1;durP2;ratioP2;P2;SDS_P1;SDS_P2;PMS_P1;PMS_P2;Temp;Humidity;BMP_temperature;BMP_pressure;BME280_temperature;BME280_humidity;BME280_pressure;Samples;Min_cycle;Max_cycle;Signal;HPM_P1;HPM_P2
2022/07/12 00:01:20;;;;;;;2.53;2.20;;;16.10;99.90;;;;;;5074757;28;20487;-59
2022/07/12 00:03:47;;;;;;;3.40;1.60;;;16.10;99.90;;;;;;5074728;28;20537;-59
2022/07/12 00:06:13;;;;;;;2.63;1.57;;;16.00;99.90;;;;;;5074644;28;20454;-59
2022/07/12 00:08:41;;;;;;;2.07;1.80;;;15.80;99.90;;;;;;5074545;28;20448;-59
2022/07/12 00:11:09;;;;;;;2.07;1.87;;;15.80;99.90;;;;;;5074422;28;20780;-59
2022/07/12 00:13:35;;;;;;;2.37;2.17;;;15.80;99.90;;;;;;5073490;28;20486;-59
2022/07/12 00:16:02;;;;;;;2.43;1.93;;;15.90;99.90;;;;;;5074681;28;20479;-60
2022/07/12 00:18:28;;;;;;;3.00;1.90;;;16.00;99.90;;;;;;5074447;28;20454;-59
2022/07/12 00:20:55;;;;;;;5.53;1.50;;;16.00;99.90;;;;;;5074251;28;20563;-60
2022/07/12 00:23:21;;;;;;;2.03;1.40;;;16.10;99.90;;;;;;5074248;28;20958;-60
2022/07/12 00:25:49;;;;;;;2.90;1.60;;;16.10;99.90;;;;;;5074191;28;20792;-60
2022/07/12 00:28:16;;;;;;;1.60;1.50;;;16.10;99.90;;;;;;5074331;28;20860;-60
2022/07/12 00:30:42;;;;;;;5.90;1.60;;;16.10;99.90;;;;;;5074184;28;20451;-59
2022/07/12 00:33:09;;;;;;;1.73;1.63;;;16.20;99.90;;;;;;5074118;28;20454;-60
2022/07/12 00:35:35;;;;;;;3.27;2.00;;;16.30;99.90;;;;;;5074031;28;20447;-59
2022/07/12 00:38:02;;;;;;;1.80;1.70;;;16.20;99.90;;;;;;5073889;28;20443;-60
2022/07/12 00:40:29;;;;;;;5.60;2.00;;;16.00;99.90;;;;;;5073728;28;20969;-60
2022/07/12 00:42:56;;;;;;;1.97;1.87;;;15.80;99.90;;;;;;5073998;28;20447;-60
2022/07/12 00:45:23;;;;;;;2.50;1.80;;;15.50;99.90;;;;;;5073883;28;20451;-59
2022/07/12 00:47:52;;;;;;;3.57;1.93;;;15.30;99.90;;;;;;5073877;28;20889;-59
2022/07/12 00:50:21;;;;;;;2.37;1.60;;;14.70;99.90;;;;;;5073685;28;20443;-59
2022/07/12 00:52:50;;;;;;;3.20;2.00;;;14.70;99.90;;;;;;5073554;28;20443;-59
2022/07/12 00:55:18;;;;;;;2.53;2.33;;;14.80;99.90;;;;;;5073767;28;20444;-59
2022/07/12 00:57:46;;;;;;;4.43;2.23;;;15.00;99.90;;;;;;5073637;28;20475;-60
2022/07/12 01:00:17;;;;;;;3.60;2.20;;;15.10;99.90;;;;;;5073895;28;20459;-60
2022/07/12 01:02:45;;;;;;;4.97;2.77;;;15.20;99.90;;;;;;5073432;28;20490;-60
2022/07/12 01:05:12;;;;;;;1.90;1.80;;;15.30;99.90;;;;;;5073358;28;20448;-60
2022/07/12 01:07:38;;;;;;;2.13;1.80;;;15.40;99.90;;;;;;5073542;28;20447;-60
2022/07/12 01:10:07;;;;;;;1.80;1.53;;;15.40;99.90;;;;;;5073462;28;20477;-60
2022/07/12 01:12:34;;;;;;;5.03;1.80;;;15.10;99.90;;;;;;5073378;28;20451;-60
2022/07/12 01:15:01;;;;;;;1.63;1.40;;;14.80;99.90;;;;;;5073333;28;20447;-59
2022/07/12 01:17:29;;;;;;;3.03;1.93;;;14.60;99.90;;;;;;5073333;28;20451;-59
2022/07/12 01:19:57;;;;;;;2.40;2.07;;;14.50;99.90;;;;;;5073161;28;20463;-59
2022/07/12 01:22:28;;;;;;;2.50;1.63;;;14.50;99.90;;;;;;5073228;28;20483;-59
2022/07/12 01:24:56;;;;;;;2.23;1.70;;;14.30;99.90;;;;;;5072979;28;20458;-59
2022/07/12 01:27:22;;;;;;;2.50;2.30;;;14.20;99.90;;;;;;5073201;28;20426;-59
2022/07/12 01:29:49;;;;;;;4.63;1.83;;;14.30;99.90;;;;;;5073130;28;20447;-59
2022/07/12 01:32:25;;;;;;;2.63;1.77;;;14.20;99.90;;;;;;5072882;28;20776;-60
2022/07/12 01:34:53;;;;;;;2.50;2.13;;;14.30;99.90;;;;;;5073259;28;20509;-59
2022/07/12 01:37:22;;;;;;;3.53;2.00;;;14.40;99.90;;;;;;5073147;28;20852;-59
2022/07/12 01:39:50;;;;;;;4.00;1.93;;;14.50;99.90;;;;;;5072938;28;20930;-59
2022/07/12 01:42:18;;;;;;;2.30;1.90;;;14.40;99.90;;;;;;5072886;28;20485;-59
2022/07/12 01:44:44;;;;;;;2.50;1.77;;;14.20;99.90;;;;;;5072889;28;20451;-60
2022/07/12 01:47:12;;;;;;;1.83;1.73;;;14.20;99.90;;;;;;5073119;28;20455;-59
2022/07/12 01:49:39;;;;;;;4.17;1.63;;;14.10;99.90;;;;;;5072803;28;20964;-59
2022/07/12 01:52:06;;;;;;;1.80;1.70;;;14.30;99.90;;;;;;5072741;28;20926;-59
2022/07/12 01:54:34;;;;;;;2.10;1.90;;;14.40;99.90;;;;;;5072867;28;20443;-60
2022/07/12 01:57:00;;;;;;;2.10;2.00;;;14.40;99.90;;;;;;5072769;28;20562;-59
2022/07/12 01:59:29;;;;;;;1.80;1.70;;;14.50;99.90;;;;;;5072686;28;20443;-59
2022/07/12 02:01:56;;;;;;;1.87;1.37;;;14.30;99.90;;;;;;5072873;28;20886;-59
2022/07/12 02:04:23;;;;;;;1.73;1.63;;;14.30;99.90;;;;;;5072886;28;20444;-59
2022/07/12 02:06:50;;;;;;;2.33;1.93;;;14.40;99.90;;;;;;5073064;28;20448;-59
2022/07/12 02:09:17;;;;;;;1.40;1.30;;;14.40;99.90;;;;;;5072723;28;20447;-59
2022/07/12 02:11:45;;;;;;;2.47;1.60;;;14.30;99.90;;;;;;5072700;28;20461;-60
2022/07/12 02:14:13;;;;;;;1.60;1.50;;;14.30;99.90;;;;;;5072893;28;20443;-60
2022/07/12 02:16:40;;;;;;;1.30;1.20;;;14.30;99.90;;;;;;5072756;28;20451;-60
2022/07/12 02:19:08;;;;;;;3.03;2.00;;;14.30;99.90;;;;;;5072693;28;20447;-60
2022/07/12 02:21:34;;;;;;;2.10;2.00;;;14.20;99.90;;;;;;5072550;28;20474;-60
2022/07/12 02:24:01;;;;;;;2.40;1.57;;;14.20;99.90;;;;;;5072544;28;20447;-60
2022/07/12 02:26:28;;;;;;;2.13;2.03;;;14.30;99.90;;;;;;5072407;28;20447;-60
2022/07/12 02:28:55;;;;;;;2.50;1.83;;;14.30;99.90;;;;;;5072667;28;20826;-60
2022/07/12 02:31:21;;;;;;;4.70;1.97;;;14.40;99.90;;;;;;5072794;28;20454;-60
2022/07/12 02:33:49;;;;;;;5.60;1.90;;;14.40;99.90;;;;;;5072570;28;20542;-60
2022/07/12 02:36:15;;;;;;;1.70;1.60;;;14.50;99.90;;;;;;5072817;28;20529;-60
2022/07/12 02:38:42;;;;;;;3.57;2.30;;;14.50;99.90;;;;;;5076236;28;20927;-61
2022/07/12 02:41:08;;;;;;;2.67;1.87;;;14.60;99.90;;;;;;5076040;28;20447;-60
2022/07/12 02:43:35;;;;;;;2.17;1.80;;;14.60;99.90;;;;;;5076300;28;20466;-60
2022/07/12 02:46:04;;;;;;;1.53;1.40;;;14.60;99.90;;;;;;5076238;28;20448;-60
2022/07/12 02:48:31;;;;;;;1.67;1.57;;;14.70;99.90;;;;;;5076152;28;20451;-61
2022/07/12 02:50:59;;;;;;;2.03;1.93;;;14.80;99.90;;;;;;5076017;28;20443;-60
2022/07/12 02:53:26;;;;;;;2.27;1.97;;;14.80;99.90;;;;;;5075895;28;20816;-60
2022/07/12 02:55:52;;;;;;;2.60;1.90;;;14.60;99.90;;;;;;5076074;28;20531;-60
2022/07/12 02:58:19;;;;;;;1.80;1.70;;;14.50;99.90;;;;;;5075601;28;21008;-61
2022/07/12 03:00:45;;;;;;;2.23;1.70;;;14.40;99.90;;;;;;5075855;28;20445;-60
2022/07/12 03:03:12;;;;;;;3.47;1.53;;;14.20;99.90;;;;;;5075826;28;20536;-60
2022/07/12 03:05:40;;;;;;;2.97;1.90;;;14.10;99.90;;;;;;5075707;28;20440;-60
2022/07/12 03:08:09;;;;;;;1.80;1.70;;;14.30;99.90;;;;;;5075652;28;20452;-60
2022/07/12 03:10:36;;;;;;;2.20;1.70;;;14.40;99.90;;;;;;5075830;28;20447;-60
2022/07/12 03:13:03;;;;;;;3.30;2.20;;;14.40;99.90;;;;;;5075729;28;20457;-60
2022/07/12 03:15:31;;;;;;;2.07;1.97;;;14.40;99.90;;;;;;5075680;28;20891;-60
2022/07/12 03:17:58;;;;;;;2.10;1.40;;;14.40;99.90;;;;;;5075525;28;20454;-61
2022/07/12 03:20:25;;;;;;;1.70;1.60;;;14.00;99.90;;;;;;5075441;28;20939;-60
2022/07/12 03:22:53;;;;;;;4.57;1.70;;;13.70;99.90;;;;;;5075235;28;20482;-60
2022/07/12 03:25:22;;;;;;;1.83;1.73;;;13.40;99.90;;;;;;5075804;28;20531;-60
2022/07/12 03:27:48;;;;;;;2.60;1.87;;;13.50;99.90;;;;;;5075502;28;20444;-60
2022/07/12 03:30:15;;;;;;;2.80;2.03;;;13.70;99.90;;;;;;5075182;28;20943;-60
2022/07/12 03:32:41;;;;;;;2.43;2.10;;;13.80;99.90;;;;;;5075268;28;20450;-60
2022/07/12 03:35:09;;;;;;;2.80;2.07;;;13.90;99.90;;;;;;5075062;28;20447;-60
2022/07/12 03:37:43;;;;;;;1.83;1.73;;;13.90;99.90;;;;;;5075298;28;20447;-60
2022/07/12 03:40:10;;;;;;;2.27;2.07;;;14.00;99.90;;;;;;5075335;28;20443;-60
2022/07/12 03:42:38;;;;;;;2.60;1.80;;;13.70;99.90;;;;;;5075063;28;20483;-60
2022/07/12 03:45:05;;;;;;;4.10;2.27;;;13.60;99.90;;;;;;5074997;28;20921;-60
2022/07/12 03:47:32;;;;;;;5.03;2.40;;;13.80;99.90;;;;;;5074912;28;20450;-60
2022/07/12 03:49:59;;;;;;;1.93;1.83;;;14.10;99.90;;;;;;5075133;28;20863;-60
2022/07/12 03:52:25;;;;;;;4.30;2.00;;;14.20;99.90;;;;;;5074936;28;20538;-60
2022/07/12 03:54:52;;;;;;;2.73;1.87;;;14.10;99.90;;;;;;5074918;28;20450;-60
2022/07/12 03:57:18;;;;;;;3.43;2.80;;;13.80;99.90;;;;;;5074586;28;20471;-60
2022/07/12 03:59:47;;;;;;;3.70;1.93;;;13.60;99.90;;;;;;5074739;28;20443;-60
2022/07/12 04:02:13;;;;;;;1.80;1.70;;;13.80;99.90;;;;;;5074558;28;20514;-60
2022/07/12 04:04:41;;;;;;;6.50;2.20;;;14.10;99.90;;;;;;5074530;28;20942;-60
2022/07/12 04:07:07;;;;;;;2.50;2.37;;;14.20;99.90;;;;;;5074727;28;20443;-60
2022/07/12 04:09:34;;;;;;;2.00;1.90;;;14.40;99.90;;;;;;5074638;28;20956;-60
2022/07/12 04:12:01;;;;;;;3.83;2.10;;;14.60;99.90;;;;;;5074547;28;20444;-60
2022/07/12 04:14:28;;;;;;;4.00;1.83;;;14.70;99.90;;;;;;5074434;28;20443;-60
2022/07/12 04:16:56;;;;;;;1.60;1.50;;;14.90;99.90;;;;;;5074315;28;20447;-60
2022/07/12 04:19:27;;;;;;;2.43;2.10;;;15.00;99.90;;;;;;5074538;28;20779;-60
2022/07/12 04:21:55;;;;;;;2.37;2.17;;;15.20;99.90;;;;;;5074305;28;20471;-59
2022/07/12 04:24:21;;;;;;;2.60;2.30;;;15.30;99.90;;;;;;5074249;28;20447;-59
2022/07/12 04:26:48;;;;;;;5.47;2.37;;;15.30;99.90;;;;;;5074072;28;20447;-59
2022/07/12 04:29:15;;;;;;;2.73;2.23;;;15.40;99.90;;;;;;5074057;28;20448;-59
2022/07/12 04:31:42;;;;;;;2.53;2.30;;;15.40;99.90;;;;;;5073940;28;20478;-59
2022/07/12 04:34:10;;;;;;;2.00;1.80;;;15.50;99.90;;;;;;5074112;28;20451;-60
2022/07/12 04:36:36;;;;;;;2.07;1.87;;;15.60;99.90;;;;;;5074074;28;20494;-59
2022/07/12 04:39:04;;;;;;;3.93;2.27;;;15.80;99.90;;;;;;5073996;28;20483;-60
2022/07/12 04:41:31;;;;;;;1.90;1.80;;;16.00;99.90;;;;;;5073854;28;20542;-60
2022/07/12 04:43:57;;;;;;;2.27;1.53;;;16.20;99.90;;;;;;5073605;28;20484;-60
2022/07/12 04:46:24;;;;;;;4.43;1.63;;;16.30;99.90;;;;;;5073884;28;20447;-59
2022/07/12 04:48:50;;;;;;;1.80;1.47;;;16.40;99.90;;;;;;5074003;28;20448;-59
2022/07/12 04:51:18;;;;;;;2.10;1.50;;;16.50;99.90;;;;;;5073676;28;20455;-60
2022/07/12 04:53:44;;;;;;;1.63;1.53;;;16.60;99.90;;;;;;5073684;28;20455;-60
2022/07/12 04:56:11;;;;;;;4.30;2.07;;;16.70;99.90;;;;;;5073365;28;20891;-61
2022/07/12 04:58:37;;;;;;;1.73;1.40;;;16.70;99.90;;;;;;5072998;28;20447;-59
2022/07/12 05:01:04;;;;;;;3.40;1.57;;;16.80;99.90;;;;;;5073138;28;20451;-60
2022/07/12 05:03:30;;;;;;;1.83;1.63;;;17.00;99.90;;;;;;5073371;28;20838;-60
2022/07/12 05:05:57;;;;;;;1.60;1.47;;;17.10;99.90;;;;;;5073365;28;20451;-60
2022/07/12 05:08:25;;;;;;;2.90;1.33;;;17.10;99.90;;;;;;5073460;28;20444;-60
2022/07/12 05:10:52;;;;;;;3.43;1.83;;;17.20;99.90;;;;;;5073161;28;20538;-60
2022/07/12 05:13:18;;;;;;;1.83;1.37;;;17.30;99.90;;;;;;5073046;28;20452;-59
2022/07/12 05:15:45;;;;;;;2.73;1.40;;;17.40;99.90;;;;;;5073272;28;20637;-60
2022/07/12 05:18:12;;;;;;;1.10;1.00;;;17.50;99.90;;;;;;5073087;28;20943;-59
2022/07/12 05:20:39;;;;;;;1.77;1.63;;;17.60;99.90;;;;;;5073152;28;20530;-59
2022/07/12 05:23:06;;;;;;;2.70;1.33;;;17.80;99.90;;;;;;5072891;28;20571;-60
2022/07/12 05:25:33;;;;;;;1.20;1.00;;;17.90;99.90;;;;;;5072965;28;20443;-59
2022/07/12 05:28:00;;;;;;;1.70;1.20;;;18.10;99.90;;;;;;5073214;28;20451;-59
2022/07/12 05:30:26;;;;;;;3.77;1.67;;;18.30;99.90;;;;;;5073240;28;20540;-59
2022/07/12 05:32:53;;;;;;;1.00;0.90;;;18.40;99.90;;;;;;5072687;28;20939;-59
2022/07/12 05:35:19;;;;;;;5.33;1.67;;;18.60;99.90;;;;;;5072932;28;20494;-59
2022/07/12 05:37:46;;;;;;;3.67;1.10;;;18.70;99.90;;;;;;5072906;28;20815;-60
2022/07/12 05:40:13;;;;;;;1.70;1.17;;;18.80;99.90;;;;;;5072775;28;20447;-59
2022/07/12 05:42:40;;;;;;;2.43;1.30;;;18.80;99.90;;;;;;5072898;28;20495;-59
2022/07/12 05:45:08;;;;;;;2.00;1.23;;;18.80;99.90;;;;;;5072956;28;20447;-59
2022/07/12 05:47:34;;;;;;;2.13;1.30;;;19.00;99.90;;;;;;5073034;28;20483;-60
2022/07/12 05:50:01;;;;;;;2.33;0.97;;;19.10;99.90;;;;;;5072812;28;20448;-60
2022/07/12 05:55:12;;;;;;;3.87;1.20;;;19.40;99.90;;;;;;5073037;28;20443;-60
2022/07/12 05:57:38;;;;;;;1.77;1.00;;;19.40;99.90;;;;;;5072554;28;20482;-61
2022/07/12 06:00:08;;;;;;;4.20;0.80;;;19.50;99.90;;;;;;5072743;28;20455;-61
2022/07/12 06:02:34;;;;;;;2.03;1.33;;;19.50;99.90;;;;;;5072704;28;20830;-60
2022/07/12 06:05:01;;;;;;;0.90;0.73;;;19.70;99.90;;;;;;5072920;28;20447;-59
2022/07/12 06:07:27;;;;;;;2.90;1.03;;;19.80;99.90;;;;;;5072334;28;20486;-59
2022/07/12 06:09:54;;;;;;;1.10;0.93;;;19.80;99.90;;;;;;5072674;28;20552;-59
2022/07/12 06:12:20;;;;;;;4.50;1.13;;;19.90;99.90;;;;;;5076559;28;20455;-58
2022/07/12 06:14:47;;;;;;;3.50;1.03;;;20.00;99.90;;;;;;5077008;28;20458;-60
2022/07/12 06:17:21;;;;;;;1.00;0.83;;;19.70;99.90;;;;;;5076503;28;20447;-61
2022/07/12 06:19:47;;;;;;;1.10;1.00;;;19.80;99.90;;;;;;5076450;28;20493;-61
2022/07/12 06:22:14;;;;;;;2.43;0.80;;;20.00;99.90;;;;;;5076669;28;20457;-60
2022/07/12 06:24:40;;;;;;;1.17;1.00;;;20.20;99.90;;;;;;5076567;28;20453;-61
2022/07/12 06:27:07;;;;;;;5.33;1.10;;;20.40;99.90;;;;;;5076435;28;20538;-61
2022/07/12 06:29:33;;;;;;;1.80;1.10;;;20.40;99.90;;;;;;5076448;28;20450;-60
2022/07/12 06:32:00;;;;;;;0.70;0.70;;;20.40;99.90;;;;;;5076284;28;20453;-60
2022/07/12 06:34:27;;;;;;;1.00;0.87;;;20.50;99.90;;;;;;5076137;28;20450;-60
2022/07/12 06:36:54;;;;;;;1.53;0.90;;;20.70;99.90;;;;;;5076325;28;20443;-61
2022/07/12 06:39:20;;;;;;;1.53;0.87;;;20.80;99.90;;;;;;5076270;28;20447;-60
2022/07/12 06:41:47;;;;;;;1.27;1.10;;;20.80;99.90;;;;;;5076097;28;20553;-61
2022/07/12 06:44:13;;;;;;;2.10;1.30;;;20.80;99.90;;;;;;5075967;28;20489;-60
2022/07/12 06:46:40;;;;;;;4.07;0.90;;;20.90;99.90;;;;;;5075995;28;20447;-60
2022/07/12 06:49:06;;;;;;;5.13;0.83;;;21.00;99.90;;;;;;5075773;28;20451;-60
2022/07/12 06:51:34;;;;;;;2.07;0.90;;;21.00;99.90;;;;;;5076115;28;20447;-60
2022/07/12 06:54:00;;;;;;;1.20;1.03;;;21.10;99.90;;;;;;5075946;28;20447;-60
2022/07/12 06:56:27;;;;;;;1.60;1.00;;;21.20;99.90;;;;;;5075713;28;20553;-60
2022/07/12 06:58:53;;;;;;;1.10;0.80;;;21.20;99.90;;;;;;5075816;28;20451;-60
2022/07/12 07:01:20;;;;;;;1.70;0.90;;;21.30;99.90;;;;;;5075727;28;20443;-60
2022/07/12 07:03:46;;;;;;;2.80;1.00;;;21.30;99.90;;;;;;5075527;28;20489;-60
2022/07/12 07:06:12;;;;;;;2.03;1.07;;;21.30;99.90;;;;;;5075584;28;20451;-60
2022/07/12 07:08:40;;;;;;;2.63;1.00;;;21.40;99.90;;;;;;5075674;28;20451;-60
2022/07/12 07:11:07;;;;;;;1.47;1.00;;;21.50;99.90;;;;;;5075609;28;20964;-60
2022/07/12 07:13:33;;;;;;;1.03;0.90;;;21.60;99.90;;;;;;5075565;28;20447;-60
2022/07/12 07:16:00;;;;;;;1.60;0.80;;;21.70;99.90;;;;;;5075435;28;20451;-60
2022/07/12 07:18:26;;;;;;;0.90;0.80;;;21.80;99.90;;;;;;5075570;28;20826;-60
2022/07/12 07:20:53;;;;;;;2.43;1.20;;;21.80;99.90;;;;;;5075397;28;20815;-60
2022/07/12 07:23:19;;;;;;;4.20;1.17;;;21.80;99.90;;;;;;5074748;28;20486;-59
2022/07/12 07:25:47;;;;;;;1.33;0.80;;;21.80;99.90;;;;;;5075339;28;20478;-60
2022/07/12 07:28:14;;;;;;;1.83;1.00;;;21.80;99.90;;;;;;5074971;28;21030;-60
2022/07/12 07:30:52;;;;;;;1.27;1.10;;;21.90;99.90;;;;;;5075032;28;20450;-59
2022/07/12 07:33:19;;;;;;;3.50;0.90;;;22.00;99.90;;;;;;5075099;28;20558;-61
2022/07/12 07:35:46;;;;;;;3.30;1.73;;;22.10;99.90;;;;;;5075005;28;20447;-60
2022/07/12 07:38:12;;;;;;;3.00;1.10;;;22.20;99.90;;;;;;5075135;28;20443;-60
2022/07/12 07:40:39;;;;;;;4.03;1.00;;;22.30;99.90;;;;;;5074830;28;20443;-58
2022/07/12 07:43:06;;;;;;;1.47;0.90;;;22.40;99.90;;;;;;5074666;28;20472;-60
2022/07/12 07:45:33;;;;;;;1.73;0.90;;;22.60;99.90;;;;;;5074941;28;20483;-60
2022/07/12 07:47:59;;;;;;;1.00;0.90;;;22.70;99.90;;;;;;5074872;28;20451;-60
2022/07/12 07:50:26;;;;;;;2.10;1.00;;;22.90;99.90;;;;;;5074729;28;20447;-60
2022/07/12 07:52:53;;;;;;;5.77;1.40;;;23.00;99.90;;;;;;5074869;28;20450;-60
2022/07/12 07:55:19;;;;;;;2.40;1.00;;;23.20;99.90;;;;;;5074558;28;20447;-59
2022/07/12 07:57:47;;;;;;;3.03;0.90;;;23.20;99.90;;;;;;5074465;28;20993;-60
2022/07/12 08:00:15;;;;;;;3.33;1.10;;;23.20;99.90;;;;;;5074707;28;20452;-60
2022/07/12 08:02:42;;;;;;;4.20;3.80;;;23.30;99.90;;;;;;5074522;28;20450;-60
2022/07/12 08:05:09;;;;;;;2.80;1.73;;;23.30;99.90;;;;;;5074729;28;20458;-57
2022/07/12 08:07:35;;;;;;;3.60;0.87;;;23.40;99.90;;;;;;5074303;28;20454;-60
2022/07/12 08:10:02;;;;;;;1.27;0.80;;;23.10;99.90;;;;;;5074200;28;20452;-59
2022/07/12 08:12:29;;;;;;;3.60;1.33;;;23.30;99.90;;;;;;5073929;28;20583;-59
2022/07/12 08:14:55;;;;;;;3.80;0.87;;;23.40;99.90;;;;;;5074423;28;20806;-54
2022/07/12 08:17:23;;;;;;;4.57;1.20;;;23.40;99.90;;;;;;5074365;28;20469;-53
2022/07/12 08:19:49;;;;;;;1.10;0.90;;;23.50;99.90;;;;;;5074283;28;20966;-56
2022/07/12 08:22:16;;;;;;;7.53;0.93;;;23.50;99.90;;;;;;5074074;28;20539;-60
2022/07/12 08:24:42;;;;;;;1.33;0.80;;;23.70;99.90;;;;;;5073946;28;20578;-60
2022/07/12 08:27:09;;;;;;;1.77;0.80;;;24.00;99.90;;;;;;5074328;28;20806;-54
2022/07/12 08:29:35;;;;;;;1.07;0.97;;;24.10;99.90;;;;;;5073896;28;20451;-60
2022/07/12 08:32:02;;;;;;;1.33;0.93;;;24.30;99.90;;;;;;5073968;28;20458;-61
2022/07/12 08:34:30;;;;;;;1.23;0.80;;;24.40;99.90;;;;;;5072802;28;20899;-60
2022/07/12 08:36:56;;;;;;;2.43;0.87;;;24.20;99.80;;;;;;5073503;28;20910;-59
2022/07/12 08:39:23;;;;;;;6.43;1.00;;;24.20;99.90;;;;;;5072976;28;20443;-60
2022/07/12 08:41:49;;;;;;;1.10;0.80;;;24.40;99.90;;;;;;5073956;28;20452;-59
2022/07/12 08:44:16;;;;;;;1.40;1.10;;;24.50;98.80;;;;;;5073318;28;20486;-56
2022/07/12 08:46:42;;;;;;;1.80;0.70;;;24.60;98.00;;;;;;5073615;28;20447;-58
2022/07/12 08:49:09;;;;;;;2.40;1.00;;;24.60;98.70;;;;;;5073608;28;20451;-59
2022/07/12 08:51:37;;;;;;;0.90;0.90;;;24.50;98.90;;;;;;5073560;28;20595;-59
2022/07/12 08:54:08;;;;;;;1.10;1.00;;;24.70;99.10;;;;;;5073370;28;20443;-59
2022/07/12 08:56:37;;;;;;;1.90;0.98;;;24.80;99.00;;;;;;5072599;28;20450;-60
2022/07/12 08:59:11;;;;;;;1.20;0.80;;;24.90;98.60;;;;;;5073541;28;20652;-64
2022/07/12 09:01:43;;;;;;;2.13;0.90;;;25.00;98.10;;;;;;5073357;28;20444;-60
2022/07/12 09:04:18;;;;;;;2.33;0.83;;;24.90;97.40;;;;;;5073177;28;20481;-63
2022/07/12 09:06:46;;;;;;;1.43;0.80;;;25.00;98.40;;;;;;5073196;28;20446;-64
2022/07/12 09:09:25;;;;;;;0.87;0.83;;;25.10;98.40;;;;;;5073420;28;20443;-62
2022/07/12 09:11:52;;;;;;;2.07;1.00;;;25.20;97.50;;;;;;5072922;28;20458;-62
2022/07/12 09:14:20;;;;;;;4.47;0.90;;;25.30;96.50;;;;;;5073099;28;20454;-61
2022/07/12 09:16:59;;;;;;;4.23;1.30;;;25.30;96.80;;;;;;5072863;28;20792;-63
2022/07/12 09:19:25;;;;;;;2.00;0.83;;;25.40;97.10;;;;;;5073511;28;20534;-61
2022/07/12 09:21:54;;;;;;;1.50;1.17;;;25.50;95.80;;;;;;5073173;28;20456;-60
2022/07/12 09:24:24;;;;;;;0.80;0.80;;;25.40;95.90;;;;;;5072999;28;20839;-60
2022/07/12 09:26:54;;;;;;;1.57;0.83;;;25.60;94.60;;;;;;5072851;28;20454;-60
2022/07/12 09:29:21;;;;;;;0.80;0.70;;;25.60;94.30;;;;;;5072873;28;20469;-64
2022/07/12 09:37:26;;;;;;;1.20;0.83;;;25.70;93.80;;;;;;5070905;28;20434;-63
2022/07/12 09:39:54;;;;;;;1.30;0.80;;;25.50;93.60;;;;;;5072289;28;20443;-64
2022/07/12 09:42:21;;;;;;;2.13;0.97;;;25.40;93.60;;;;;;5072494;28;20443;-63
2022/07/12 09:44:48;;;;;;;2.90;0.80;;;25.60;93.40;;;;;;5072642;28;20479;-64
2022/07/12 09:47:15;;;;;;;3.03;1.20;;;25.90;92.40;;;;;;5072739;28;21004;-63
2022/07/12 09:49:43;;;;;;;2.60;1.37;;;25.60;91.70;;;;;;5072648;28;20470;-63
2022/07/12 09:52:12;;;;;;;2.80;1.80;;;25.50;92.60;;;;;;5072509;28;20461;-64
2022/07/12 09:54:42;;;;;;;3.70;1.00;;;25.80;92.80;;;;;;5072910;28;20949;-63
2022/07/12 09:57:17;;;;;;;5.63;0.93;;;26.10;92.90;;;;;;5072492;28;20479;-64
2022/07/12 09:59:44;;;;;;;1.27;0.77;;;26.20;91.80;;;;;;5072647;28;20512;-64
2022/07/12 10:02:15;;;;;;;1.00;0.70;;;26.30;90.80;;;;;;5072585;28;20451;-64
2022/07/12 10:04:42;;;;;;;2.20;0.83;;;26.50;91.10;;;;;;5072509;28;20917;-64
2022/07/12 10:07:12;;;;;;;0.73;0.60;;;26.30;90.70;;;;;;5072767;28;20444;-64
2022/07/12 10:09:42;;;;;;;2.63;0.93;;;25.90;90.40;;;;;;5072610;28;20447;-64
2022/07/12 10:12:09;;;;;;;0.70;0.60;;;26.00;91.10;;;;;;5072294;28;20448;-64
2022/07/12 10:14:37;;;;;;;2.00;0.90;;;26.30;90.10;;;;;;5072886;28;20790;-60
2022/07/12 10:17:08;;;;;;;1.00;0.80;;;26.30;90.50;;;;;;5072047;28;20803;-60
2022/07/12 10:19:36;;;;;;;1.73;0.97;;;26.30;91.00;;;;;;5072482;28;20934;-59
2022/07/12 10:22:04;;;;;;;1.23;0.90;;;26.80;90.20;;;;;;5072484;28;20554;-59
2022/07/12 10:24:49;;;;;;;4.20;1.17;;;26.80;88.70;;;;;;5072527;28;20582;-61
2022/07/12 10:27:32;;;;;;;2.00;0.90;;;27.00;90.50;;;;;;5072515;28;20935;-61
2022/07/12 10:30:22;;;;;;;1.20;0.80;;;27.20;90.60;;;;;;5072214;28;20598;-61
2022/07/12 10:32:52;;;;;;;3.83;0.90;;;27.30;89.40;;;;;;5072617;28;20447;-61
2022/07/12 10:35:21;;;;;;;1.67;1.00;;;27.30;88.10;;;;;;5072357;28;20448;-60
2022/07/12 10:38:20;;;;;;;2.20;0.90;;;27.50;90.00;;;;;;5072307;28;20479;-59
2022/07/12 10:40:50;;;;;;;1.27;1.10;;;27.40;89.00;;;;;;5072423;28;20508;-60
2022/07/12 10:43:18;;;;;;;1.87;0.90;;;27.10;90.00;;;;;;5072292;28;20469;-60
2022/07/12 10:45:46;;;;;;;1.90;0.97;;;26.90;87.50;;;;;;5071870;28;20479;-60
2022/07/12 10:48:21;;;;;;;2.10;1.17;;;27.10;88.00;;;;;;5071942;28;20479;-59
2022/07/12 10:50:56;;;;;;;2.10;1.10;;;27.50;86.20;;;;;;5071754;28;21017;-60
2022/07/12 10:53:25;;;;;;;1.30;0.90;;;27.20;84.20;;;;;;5072201;28;20501;-59
2022/07/12 10:56:14;;;;;;;1.20;0.90;;;27.30;86.90;;;;;;5071980;28;20510;-58
2022/07/12 10:58:43;;;;;;;1.43;0.80;;;27.20;86.90;;;;;;5074713;28;20573;-62
2022/07/12 11:01:11;;;;;;;1.27;0.77;;;27.00;88.90;;;;;;5075612;28;20443;-59
2022/07/12 11:03:43;;;;;;;1.20;0.80;;;27.00;88.00;;;;;;5075717;28;20882;-59
2022/07/12 11:06:10;;;;;;;1.47;0.90;;;27.20;86.80;;;;;;5075675;28;20862;-59
2022/07/12 11:08:56;;;;;;;1.30;0.80;;;26.70;86.90;;;;;;5075518;28;20501;-58
2022/07/12 11:11:26;;;;;;;1.93;0.80;;;26.30;89.00;;;;;;5075327;28;20443;-58
2022/07/12 11:13:54;;;;;;;1.10;0.87;;;26.90;86.80;;;;;;5075627;28;20451;-59
2022/07/12 11:16:21;;;;;;;0.80;0.80;;;27.20;86.70;;;;;;5075152;28;20803;-59
2022/07/12 11:18:48;;;;;;;1.70;1.00;;;27.30;84.60;;;;;;5075200;28;20485;-60
2022/07/12 11:21:14;;;;;;;1.77;1.10;;;27.10;85.10;;;;;;5075241;28;20534;-61
2022/07/12 11:23:41;;;;;;;3.13;0.90;;;26.90;85.10;;;;;;5074556;28;20439;-56
2022/07/12 11:26:09;;;;;;;3.00;0.80;;;27.10;85.50;;;;;;5074849;28;20859;-57
2022/07/12 11:28:38;;;;;;;1.00;0.70;;;26.60;84.70;;;;;;5074660;28;20481;-57
2022/07/12 11:31:06;;;;;;;1.33;0.80;;;26.40;86.60;;;;;;5075190;28;20539;-56
2022/07/12 11:33:36;;;;;;;1.43;0.80;;;26.60;87.40;;;;;;5075062;28;21022;-56
2022/07/12 11:36:04;;;;;;;0.80;0.80;;;27.00;86.50;;;;;;5074739;28;20985;-52
2022/07/12 11:38:32;;;;;;;1.10;0.80;;;26.80;84.50;;;;;;5074807;28;20990;-59
2022/07/12 11:41:00;;;;;;;1.10;0.87;;;27.10;85.00;;;;;;5075184;28;20775;-59
2022/07/12 11:43:27;;;;;;;0.80;0.70;;;27.00;84.40;;;;;;5075134;28;20818;-59
2022/07/12 11:45:56;;;;;;;1.10;0.80;;;26.80;85.50;;;;;;5074559;28;21012;-60
2022/07/12 11:48:23;;;;;;;1.27;0.80;;;26.80;85.80;;;;;;5074722;28;20448;-61
2022/07/12 11:50:52;;;;;;;2.40;0.90;;;27.10;85.30;;;;;;5074758;28;21076;-63
2022/07/12 11:53:21;;;;;;;2.03;1.00;;;27.20;85.30;;;;;;5074475;28;20538;-61
2022/07/12 11:55:49;;;;;;;1.97;1.00;;;27.60;86.50;;;;;;5074857;28;20520;-61
2022/07/12 11:58:17;;;;;;;0.80;0.80;;;27.60;84.90;;;;;;5074376;28;20486;-60
2022/07/12 12:00:44;;;;;;;1.10;0.87;;;27.60;85.80;;;;;;5074597;28;20539;-60
2022/07/12 12:03:12;;;;;;;3.60;1.10;;;27.70;84.70;;;;;;5074013;28;20546;-59
2022/07/12 12:05:39;;;;;;;2.00;1.07;;;27.80;85.50;;;;;;5071587;28;20562;-59
2022/07/12 12:08:06;;;;;;;1.20;0.90;;;27.60;83.80;;;;;;5073936;28;20947;-59
2022/07/12 12:10:33;;;;;;;2.70;1.23;;;27.60;85.30;;;;;;5073797;28;20822;-59
2022/07/12 12:13:01;;;;;;;1.07;0.87;;;27.80;83.60;;;;;;5074575;28;20478;-59
2022/07/12 12:15:29;;;;;;;1.57;0.77;;;28.00;84.90;;;;;;5073309;28;20480;-59
2022/07/12 12:17:57;;;;;;;3.30;1.10;;;28.30;83.20;;;;;;5073136;28;20439;-59
2022/07/12 12:20:27;;;;;;;2.37;0.80;;;28.20;83.40;;;;;;5073868;28;20539;-59
2022/07/12 12:22:56;;;;;;;1.53;0.80;;;27.60;83.80;;;;;;5070913;28;20968;-59
2022/07/12 12:25:23;;;;;;;0.87;0.70;;;27.50;84.60;;;;;;5071454;28;21049;-59
2022/07/12 12:27:54;;;;;;;2.10;0.90;;;27.40;85.60;;;;;;5075050;28;20446;-59
2022/07/12 12:30:20;;;;;;;1.67;0.80;;;27.80;84.50;;;;;;5073098;28;20624;-59
2022/07/12 12:32:49;;;;;;;6.43;1.33;;;27.50;83.10;;;;;;5073421;28;20489;-59
2022/07/12 12:35:17;;;;;;;1.10;0.90;;;27.60;83.10;;;;;;5073829;28;20501;-59
2022/07/12 12:37:55;;;;;;;2.97;0.80;;;27.20;85.80;;;;;;5073618;28;20964;-59
2022/07/12 12:40:23;;;;;;;1.03;0.80;;;27.30;86.30;;;;;;5069141;28;20448;-58
2022/07/12 12:42:50;;;;;;;1.77;0.90;;;27.50;87.20;;;;;;5073135;28;20448;-59
2022/07/12 12:45:24;;;;;;;2.30;0.90;;;27.90;85.10;;;;;;5073334;28;20507;-59
2022/07/12 12:47:59;;;;;;;1.00;0.80;;;28.30;84.40;;;;;;5073128;28;20553;-59
2022/07/12 12:50:41;;;;;;;1.17;0.80;;;28.60;83.20;;;;;;5072844;28;20482;-59
2022/07/12 12:53:14;;;;;;;1.40;1.00;;;28.70;81.90;;;;;;5072031;28;20451;-59
2022/07/12 12:55:42;;;;;;;1.10;1.00;;;28.60;83.10;;;;;;5071437;28;20539;-59
2022/07/12 12:58:08;;;;;;;0.97;0.87;;;28.40;82.50;;;;;;5072376;28;20512;-59
2022/07/12 13:00:38;;;;;;;1.60;0.80;;;28.70;81.10;;;;;;5072882;28;20543;-59